createdAt,value
2023-03-08T00:00:18.581Z,6.43
2023-03-08T00:02:46.066Z,6.03
2023-03-08T00:07:40.700Z,6.18
2023-03-08T00:12:35.942Z,5.57
2023-03-08T00:15:03.617Z,5.43
2023-03-08T00:17:31.138Z,7.15
2023-03-08T00:19:58.522Z,4.70
2023-03-08T00:27:20.625Z,5.50
2023-03-08T00:32:17.047Z,4.90
2023-03-08T00:34:47.005Z,5.95
2023-03-08T00:37:14.463Z,7.30
2023-03-08T00:42:09.327Z,5.13
2023-03-08T00:44:36.837Z,5.53
2023-03-08T00:47:04.414Z,4.95
2023-03-08T00:49:31.856Z,6.60
2023-03-08T00:54:26.640Z,4.78
2023-03-08T00:56:54.114Z,3.20
2023-03-08T01:01:48.871Z,5.72
2023-03-08T01:09:12.257Z,6.25
2023-03-08T01:11:40.375Z,3.55
2023-03-08T01:14:09.084Z,3.90
2023-03-08T01:16:37.209Z,3.08
2023-03-08T01:19:05.358Z,2.47
2023-03-08T01:21:32.894Z,3.03
2023-03-08T01:24:00.690Z,2.30
2023-03-08T01:26:29.261Z,2.00
2023-03-08T01:28:57.748Z,4.30
2023-03-08T01:31:27.892Z,2.05
2023-03-08T01:33:57.765Z,1.88
2023-03-08T01:36:27.821Z,1.27
2023-03-08T01:38:55.757Z,1.90
2023-03-08T01:41:26.771Z,1.58
2023-03-08T01:43:54.697Z,1.80
2023-03-08T01:46:36.014Z,1.30
2023-03-08T01:49:11.868Z,0.88
2023-03-08T01:51:47.469Z,1.75
2023-03-08T01:54:23.621Z,1.98
2023-03-08T01:56:53.590Z,0.98
2023-03-08T01:59:23.104Z,1.60
2023-03-08T02:01:51.279Z,0.55
2023-03-08T02:04:20.204Z,0.82
2023-03-08T02:06:48.804Z,1.40
2023-03-08T02:09:21.685Z,0.60
2023-03-08T02:11:49.972Z,0.80
2023-03-08T02:14:17.482Z,0.38
2023-03-08T02:16:48.940Z,0.30
2023-03-08T02:19:32.272Z,0.28
2023-03-08T02:22:07.176Z,0.82
2023-03-08T02:24:34.669Z,2.40
2023-03-08T02:29:34.619Z,0.22
2023-03-08T02:32:02.238Z,0.20
2023-03-08T02:34:30.322Z,1.63
2023-03-08T02:36:59.060Z,1.13
2023-03-08T02:39:26.907Z,3.83
2023-03-08T02:41:55.641Z,0.82
2023-03-08T02:44:23.165Z,3.05
2023-03-08T02:46:53.073Z,0.35
2023-03-08T02:49:20.670Z,0.10
2023-03-08T02:51:48.995Z,0.82
2023-03-08T02:54:17.092Z,0.30
2023-03-08T02:56:44.700Z,1.30
2023-03-08T02:59:14.318Z,1.58
2023-03-08T03:01:44.419Z,2.28
2023-03-08T03:04:11.983Z,1.02
2023-03-08T03:09:08.751Z,5.95
2023-03-08T03:11:36.738Z,2.25
2023-03-08T03:14:04.293Z,4.78
2023-03-08T03:16:37.018Z,2.63
2023-03-08T03:19:04.603Z,3.63
2023-03-08T03:21:33.027Z,3.42
2023-03-08T03:24:00.867Z,3.83
2023-03-08T03:26:35.900Z,5.10
2023-03-08T03:29:03.383Z,5.25
2023-03-08T03:31:34.519Z,5.22
2023-03-08T03:34:02.781Z,5.03
2023-03-08T03:36:30.215Z,9.02
2023-03-08T03:38:58.971Z,12.10
2023-03-08T03:41:26.982Z,6.05
2023-03-08T03:44:05.378Z,12.10
2023-03-08T03:46:34.115Z,11.88
2023-03-08T03:49:02.609Z,11.27
2023-03-08T03:51:35.598Z,5.72
2023-03-08T03:54:23.325Z,9.70
2023-03-08T03:56:51.436Z,11.18
2023-03-08T03:59:23.563Z,11.50
2023-03-08T04:01:52.912Z,9.75
2023-03-08T04:04:25.561Z,13.50
2023-03-08T04:06:54.726Z,10.18
2023-03-08T04:09:25.948Z,14.40
2023-03-08T04:12:06.002Z,13.40
2023-03-08T04:14:35.313Z,17.73
2023-03-08T04:17:04.194Z,13.57
2023-03-08T04:19:39.141Z,15.20
2023-03-08T04:22:08.280Z,17.52
2023-03-08T04:24:43.772Z,10.27
2023-03-08T04:27:16.537Z,21.70
2023-03-08T04:29:44.052Z,18.27
2023-03-08T04:32:11.927Z,17.00
2023-03-08T04:34:49.854Z,23.42
2023-03-08T04:37:20.830Z,16.75
2023-03-08T04:39:53.158Z,18.23
2023-03-08T04:42:20.721Z,19.17
2023-03-08T04:44:48.840Z,17.60
2023-03-08T04:47:20.169Z,22.55
2023-03-08T04:49:47.781Z,23.20
2023-03-08T04:52:15.304Z,15.73
2023-03-08T04:54:43.619Z,20.65
2023-03-08T04:57:21.500Z,19.55
2023-03-08T04:59:51.482Z,16.52
2023-03-08T05:02:22.304Z,16.35
2023-03-08T05:04:50.421Z,15.23
2023-03-08T05:07:18.000Z,12.80
2023-03-08T05:09:46.616Z,20.15
2023-03-08T05:12:14.624Z,15.20
2023-03-08T05:14:55.016Z,21.23
2023-03-08T05:17:24.749Z,17.77
2023-03-08T05:19:52.770Z,17.73
2023-03-08T05:22:25.362Z,16.70
2023-03-08T05:24:56.276Z,22.98
2023-03-08T05:27:24.652Z,14.00
2023-03-08T05:29:53.236Z,20.75
2023-03-08T05:32:20.965Z,13.73
2023-03-08T05:34:52.813Z,14.15
2023-03-08T05:37:27.908Z,23.55
2023-03-08T05:40:00.185Z,15.50
2023-03-08T05:42:31.543Z,12.95
2023-03-08T05:45:00.623Z,18.77
2023-03-08T05:47:33.763Z,23.40
2023-03-08T05:50:01.361Z,20.45
2023-03-08T05:52:34.514Z,28.83
2023-03-08T05:55:02.481Z,16.98
2023-03-08T05:57:30.078Z,24.23
2023-03-08T05:59:57.596Z,18.73
2023-03-08T06:02:25.125Z,16.48
2023-03-08T06:04:56.132Z,15.90
2023-03-08T06:07:26.453Z,15.52
2023-03-08T06:09:59.455Z,20.75
2023-03-08T06:12:27.012Z,11.45
2023-03-08T06:14:58.320Z,16.70
2023-03-08T06:17:28.845Z,19.10
2023-03-08T06:19:57.842Z,15.95
2023-03-08T06:22:25.424Z,24.13
2023-03-08T06:24:54.988Z,21.02
2023-03-08T06:27:34.141Z,17.95
2023-03-08T06:30:06.146Z,14.52
2023-03-08T06:32:35.797Z,20.33
2023-03-08T06:35:04.257Z,12.68
2023-03-08T06:37:35.668Z,15.30
2023-03-08T06:40:05.930Z,16.88
2023-03-08T06:42:41.193Z,13.70
2023-03-08T06:45:13.338Z,17.08
2023-03-08T06:47:40.973Z,16.60
2023-03-08T06:50:11.785Z,10.07
2023-03-08T06:52:41.668Z,8.27
2023-03-08T06:55:10.493Z,11.35
2023-03-08T06:57:38.230Z,12.02
2023-03-08T07:00:06.297Z,8.32
2023-03-08T07:02:33.764Z,11.60
2023-03-08T07:05:01.149Z,8.93
2023-03-08T07:07:28.772Z,6.28
2023-03-08T07:09:56.276Z,10.75
2023-03-08T07:12:24.438Z,11.30
2023-03-08T07:14:53.224Z,10.35
2023-03-08T07:17:20.744Z,9.50
2023-03-08T07:19:48.123Z,14.68
2023-03-08T07:24:42.929Z,15.52
2023-03-08T07:27:10.443Z,13.10
2023-03-08T07:29:37.865Z,8.40
2023-03-08T07:32:05.859Z,12.18
2023-03-08T07:34:33.425Z,12.18
2023-03-08T07:37:00.979Z,13.90
2023-03-08T07:39:28.551Z,11.15
2023-03-08T07:41:56.202Z,9.07
2023-03-08T07:44:23.907Z,13.45
2023-03-08T07:46:51.482Z,7.88
2023-03-08T07:49:21.684Z,9.95
2023-03-08T07:51:50.055Z,12.70
2023-03-08T07:54:17.566Z,14.50
2023-03-08T07:56:45.183Z,11.57
2023-03-08T07:59:12.716Z,12.63
2023-03-08T08:01:40.445Z,11.20
2023-03-08T08:04:09.097Z,12.10
2023-03-08T08:06:37.236Z,10.05
2023-03-08T08:09:05.186Z,13.90
2023-03-08T08:11:32.795Z,7.68
2023-03-08T08:14:01.788Z,18.33
2023-03-08T08:16:29.370Z,22.50
2023-03-08T08:18:56.837Z,9.75
2023-03-08T08:21:26.422Z,12.13
2023-03-08T08:23:58.500Z,12.15
2023-03-08T08:26:26.484Z,15.38
2023-03-08T08:28:54.931Z,14.85
2023-03-08T08:31:25.641Z,21.13
2023-03-08T08:33:53.139Z,18.83
2023-03-08T08:36:21.636Z,15.90
2023-03-08T08:38:51.810Z,17.58
2023-03-08T08:41:24.651Z,15.90
2023-03-08T08:43:52.940Z,17.75
2023-03-08T08:46:20.538Z,16.48
2023-03-08T08:48:48.081Z,15.02
2023-03-08T08:51:15.587Z,18.65
2023-03-08T08:53:44.365Z,17.35
2023-03-08T08:56:26.773Z,20.00
2023-03-08T08:58:57.679Z,22.38
2023-03-08T09:01:29.154Z,18.75
2023-03-08T09:03:56.696Z,14.60
2023-03-08T09:06:26.291Z,14.73
2023-03-08T09:08:56.265Z,21.58
2023-03-08T09:11:25.673Z,19.13
2023-03-08T09:13:54.312Z,21.20
2023-03-08T09:16:27.701Z,17.67
2023-03-08T09:18:57.123Z,17.77
2023-03-08T09:21:26.149Z,20.75
2023-03-08T09:23:54.306Z,19.83
2023-03-08T09:26:21.838Z,17.08
2023-03-08T09:28:49.350Z,16.98
2023-03-08T09:31:18.378Z,19.40
2023-03-08T09:33:48.558Z,21.55
2023-03-08T09:36:16.759Z,18.45
2023-03-08T09:38:44.591Z,14.43
2023-03-08T09:41:42.960Z,23.83
2023-03-08T09:44:16.646Z,19.95
2023-03-08T09:47:02.026Z,15.00
2023-03-08T09:49:31.682Z,15.55
2023-03-08T09:52:23.226Z,13.57
2023-03-08T09:54:52.089Z,15.90
2023-03-08T09:57:34.328Z,16.58
2023-03-08T10:00:09.973Z,17.45
2023-03-08T10:03:17.422Z,20.27
2023-03-08T10:06:05.308Z,17.05
2023-03-08T10:08:45.487Z,15.13
2023-03-08T10:11:24.659Z,16.20
2023-03-08T10:13:56.812Z,16.90
2023-03-08T10:16:28.586Z,17.08
2023-03-08T10:19:00.640Z,14.32
2023-03-08T10:21:32.886Z,27.35
2023-03-08T10:24:41.692Z,13.77
2023-03-08T10:27:32.343Z,10.98
2023-03-08T10:30:01.560Z,12.20
2023-03-08T10:32:29.405Z,6.75
2023-03-08T10:35:05.733Z,10.50
2023-03-08T10:37:34.484Z,5.93
2023-03-08T10:40:07.113Z,15.50
2023-03-08T10:42:36.373Z,8.50
2023-03-08T10:45:12.754Z,9.93
2023-03-08T10:47:40.997Z,8.15
2023-03-08T10:50:18.223Z,9.00
2023-03-08T10:52:48.318Z,6.13
2023-03-08T10:55:26.617Z,10.32
2023-03-08T10:57:56.630Z,6.43
2023-03-08T11:00:36.268Z,6.82
2023-03-08T11:03:17.102Z,3.58
2023-03-08T11:06:01.249Z,7.63
2023-03-08T11:08:32.707Z,8.07
2023-03-08T11:11:14.392Z,6.90
2023-03-08T11:13:47.702Z,8.80
2023-03-08T11:16:44.348Z,9.93
2023-03-08T11:22:28.592Z,13.98
2023-03-08T11:25:14.462Z,13.07
2023-03-08T11:27:52.276Z,12.02
2023-03-08T11:30:37.818Z,15.52
2023-03-08T11:33:47.194Z,20.15
2023-03-08T11:37:05.285Z,18.63
2023-03-08T11:39:37.086Z,16.70
2023-03-08T11:42:22.831Z,20.38
2023-03-08T11:45:15.390Z,11.60
2023-03-08T11:47:58.185Z,22.00
2023-03-08T11:50:38.193Z,17.48
2023-03-08T11:53:18.501Z,18.58
2023-03-08T11:56:00.753Z,17.45
2023-03-08T11:58:49.444Z,24.00
2023-03-08T12:01:25.825Z,19.35
2023-03-08T12:03:58.875Z,20.17
2023-03-08T12:06:33.746Z,13.15
2023-03-08T12:09:08.153Z,13.95
2023-03-08T12:11:44.720Z,12.95
2023-03-08T12:14:30.574Z,12.73
2023-03-08T12:17:10.171Z,13.73
2023-03-08T12:19:44.676Z,16.65
2023-03-08T12:22:33.729Z,16.33
2023-03-08T12:25:23.066Z,14.07
2023-03-08T12:27:53.618Z,10.30
2023-03-08T12:30:27.295Z,12.13
2023-03-08T12:32:56.700Z,11.52
2023-03-08T12:35:28.927Z,12.23
2023-03-08T12:38:03.009Z,13.85
2023-03-08T12:40:52.101Z,12.52
2023-03-08T12:43:19.738Z,12.82
2023-03-08T12:46:01.215Z,18.40
2023-03-08T12:48:40.094Z,16.45
2023-03-08T12:51:13.406Z,20.60
2023-03-08T12:53:49.875Z,17.52
2023-03-08T12:56:26.639Z,21.55
2023-03-08T12:58:59.452Z,16.13
2023-03-08T13:01:32.009Z,14.98
2023-03-08T13:04:00.227Z,24.48
2023-03-08T13:06:52.755Z,22.27
2023-03-08T13:09:42.341Z,19.48
2023-03-08T13:12:15.747Z,15.48
2023-03-08T13:14:46.662Z,20.15
2023-03-08T13:17:32.545Z,15.90
2023-03-08T13:20:08.039Z,24.67
2023-03-08T13:22:58.584Z,21.17
2023-03-08T13:25:55.482Z,19.55
2023-03-08T13:28:32.286Z,11.30
2023-03-08T13:31:18.180Z,14.85
2023-03-08T13:33:47.848Z,17.60
2023-03-08T13:36:29.066Z,15.45
2023-03-08T13:39:05.753Z,14.95
2023-03-08T13:41:41.588Z,13.27
2023-03-08T13:44:22.408Z,11.85
2023-03-08T13:47:01.366Z,18.77
2023-03-08T13:49:43.474Z,11.90
2023-03-08T13:52:18.238Z,14.45
2023-03-08T13:54:51.400Z,16.08
2023-03-08T13:57:28.122Z,14.10
2023-03-08T13:59:58.197Z,16.73
2023-03-08T14:02:28.592Z,13.23
2023-03-08T14:04:57.438Z,18.45
2023-03-08T14:07:28.374Z,12.75
2023-03-08T14:09:56.713Z,12.77
2023-03-08T14:12:28.698Z,14.77
2023-03-08T14:15:00.422Z,17.13
2023-03-08T14:17:30.850Z,16.10
2023-03-08T14:20:07.338Z,15.52
2023-03-08T14:22:40.248Z,17.10
2023-03-08T14:25:25.361Z,13.15
2023-03-08T14:27:53.141Z,16.40
2023-03-08T14:30:29.476Z,18.27
2023-03-08T14:33:17.116Z,18.20
2023-03-08T14:35:53.754Z,15.30
2023-03-08T14:38:33.664Z,19.75
2023-03-08T14:41:06.395Z,16.60
2023-03-08T14:43:34.071Z,18.00
2023-03-08T14:46:05.453Z,18.25
2023-03-08T14:48:35.368Z,15.25
2023-03-08T14:51:02.939Z,17.60
2023-03-08T14:53:34.561Z,17.42
2023-03-08T14:56:16.206Z,19.77
2023-03-08T14:58:49.017Z,15.38
2023-03-08T15:01:43.793Z,20.85
2023-03-08T15:04:25.832Z,24.45
2023-03-08T15:06:54.726Z,22.80
2023-03-08T15:09:22.901Z,23.77
2023-03-08T15:11:52.973Z,28.02
2023-03-08T15:14:20.411Z,22.00
2023-03-08T15:16:47.976Z,22.85
2023-03-08T15:19:15.439Z,19.60
2023-03-08T15:21:43.137Z,25.20
2023-03-08T15:24:16.243Z,23.30
2023-03-08T15:26:44.631Z,26.02
2023-03-08T15:29:32.331Z,20.85
2023-03-08T15:32:01.885Z,25.85
2023-03-08T15:34:29.327Z,23.85
2023-03-08T15:36:57.000Z,22.60
2023-03-08T15:39:24.609Z,26.15
2023-03-08T15:41:52.244Z,24.02
2023-03-08T15:44:19.793Z,29.13
2023-03-08T15:46:47.535Z,27.08
2023-03-08T15:49:15.111Z,25.75
2023-03-08T15:51:42.804Z,30.10
2023-03-08T15:54:10.976Z,30.83
2023-03-08T15:56:38.411Z,21.52
2023-03-08T15:59:05.807Z,20.83
2023-03-08T16:01:33.459Z,25.55
2023-03-08T16:04:01.228Z,23.63
2023-03-08T16:06:28.832Z,27.60
2023-03-08T16:08:56.809Z,28.73
2023-03-08T16:11:24.303Z,28.33
2023-03-08T16:13:52.981Z,28.10
2023-03-08T16:16:21.279Z,25.17
2023-03-08T16:18:48.948Z,30.33
2023-03-08T16:21:17.168Z,23.80
2023-03-08T16:23:44.593Z,31.30
2023-03-08T16:26:17.269Z,24.50
2023-03-08T16:28:47.275Z,26.23
2023-03-08T16:31:16.545Z,28.85
2023-03-08T16:33:44.294Z,25.85
2023-03-08T16:36:12.627Z,27.65
2023-03-08T16:38:41.591Z,28.98
2023-03-08T16:41:13.120Z,28.45
2023-03-08T16:43:47.406Z,28.85
2023-03-08T16:46:20.063Z,31.20
2023-03-08T16:48:49.981Z,29.30
2023-03-08T16:51:19.411Z,34.92
2023-03-08T16:53:47.598Z,27.17
2023-03-08T16:56:22.239Z,29.45
2023-03-08T16:58:49.809Z,35.08
2023-03-08T17:01:19.472Z,28.23
2023-03-08T17:03:47.305Z,30.25
2023-03-08T17:06:17.697Z,25.85
2023-03-08T17:08:45.875Z,25.45
2023-03-08T17:11:22.469Z,23.63
2023-03-08T17:13:52.152Z,32.13
2023-03-08T17:16:21.713Z,31.02
2023-03-08T17:18:50.743Z,30.45
2023-03-08T17:21:19.675Z,31.58
2023-03-08T17:23:47.704Z,33.97
2023-03-08T17:26:17.083Z,33.60
2023-03-08T17:28:45.066Z,36.80
2023-03-08T17:31:16.426Z,30.77
2023-03-08T17:33:44.923Z,41.15
2023-03-08T17:36:14.225Z,39.20
2023-03-08T17:38:42.327Z,28.08
2023-03-08T17:41:14.212Z,23.30
2023-03-08T17:43:42.229Z,26.02
2023-03-08T17:46:17.152Z,28.23
2023-03-08T17:48:44.797Z,26.05
2023-03-08T17:51:17.517Z,21.42
2023-03-08T17:53:46.165Z,21.40
2023-03-08T17:56:16.179Z,18.75
2023-03-08T17:58:44.652Z,15.75
2023-03-08T18:01:16.321Z,12.20
2023-03-08T18:03:44.356Z,7.47
2023-03-08T18:06:25.703Z,9.27
2023-03-08T18:08:53.549Z,6.45
2023-03-08T18:11:21.020Z,8.50
2023-03-08T18:13:49.059Z,8.65
2023-03-08T18:16:16.512Z,4.60
2023-03-08T18:18:45.808Z,9.23
2023-03-08T18:21:14.404Z,10.07
2023-03-08T18:23:43.365Z,7.10
2023-03-08T18:26:13.534Z,7.38
2023-03-08T18:28:41.583Z,5.30
2023-03-08T18:31:12.657Z,5.70
2023-03-08T18:33:40.586Z,4.50
2023-03-08T18:36:08.273Z,4.78
2023-03-08T18:38:36.245Z,5.65
2023-03-08T18:41:21.397Z,6.95
2023-03-08T18:43:49.022Z,8.20
2023-03-08T18:46:16.803Z,5.25
2023-03-08T18:48:47.433Z,4.97
2023-03-08T18:51:16.562Z,10.23
2023-03-08T18:53:44.127Z,7.10
2023-03-08T18:56:11.728Z,6.70
2023-03-08T18:58:39.268Z,6.00
2023-03-08T19:01:13.266Z,5.75
2023-03-08T19:03:41.620Z,5.07
2023-03-08T19:06:09.952Z,5.95
2023-03-08T19:08:37.482Z,3.38
2023-03-08T19:11:16.892Z,3.65
2023-03-08T19:13:44.746Z,2.90
2023-03-08T19:16:23.818Z,2.38
2023-03-08T19:18:54.280Z,1.88
2023-03-08T19:21:27.962Z,5.53
2023-03-08T19:23:56.604Z,3.65
2023-03-08T19:26:38.934Z,4.25
2023-03-08T19:29:13.986Z,6.43
2023-03-08T19:31:43.219Z,7.40
2023-03-08T19:34:13.220Z,5.43
2023-03-08T19:36:42.244Z,6.90
2023-03-08T19:39:14.523Z,8.25
2023-03-08T19:41:42.855Z,4.60
2023-03-08T19:44:10.563Z,5.80
2023-03-08T19:46:39.422Z,5.80
2023-03-08T19:49:08.740Z,3.50
2023-03-08T19:51:36.312Z,7.25
2023-03-08T19:54:06.078Z,7.20
2023-03-08T19:56:34.221Z,7.10
2023-03-08T19:59:02.577Z,7.35
2023-03-08T20:01:30.154Z,8.65
2023-03-08T20:03:57.819Z,5.55
2023-03-08T20:06:46.692Z,9.13
2023-03-08T20:09:23.957Z,8.93
2023-03-08T20:11:57.373Z,9.00
2023-03-08T20:14:27.644Z,8.38
2023-03-08T20:16:56.203Z,11.93
2023-03-08T20:19:23.911Z,11.57
2023-03-08T20:21:51.353Z,9.00
2023-03-08T20:24:19.198Z,7.30
2023-03-08T20:26:47.003Z,7.47
2023-03-08T20:29:15.538Z,11.43
2023-03-08T20:31:44.277Z,10.27
2023-03-08T20:34:11.866Z,9.73
2023-03-08T20:36:39.336Z,12.48
2023-03-08T20:39:07.021Z,13.45
2023-03-08T20:41:34.932Z,12.63
2023-03-08T20:44:02.564Z,10.30
2023-03-08T20:46:33.934Z,8.63
2023-03-08T20:49:01.815Z,11.35
2023-03-08T20:51:29.509Z,10.52
2023-03-08T20:53:57.113Z,13.38
2023-03-08T20:56:25.883Z,14.07
2023-03-08T20:58:56.606Z,9.40
2023-03-08T21:01:29.824Z,16.40
2023-03-08T21:03:57.450Z,11.52
2023-03-08T21:06:28.091Z,8.00
2023-03-08T21:08:55.701Z,16.23
2023-03-08T21:11:23.526Z,27.08
2023-03-08T21:13:52.442Z,13.88
2023-03-08T21:16:22.415Z,11.50
2023-03-08T21:18:52.036Z,14.05
2023-03-08T21:21:24.364Z,12.95
2023-03-08T21:23:54.360Z,14.70
2023-03-08T21:26:24.493Z,14.90
2023-03-08T21:28:53.717Z,14.48
2023-03-08T21:31:21.562Z,13.00
2023-03-08T21:33:49.609Z,17.80
2023-03-08T21:36:17.365Z,20.48
2023-03-08T21:38:44.935Z,12.27
2023-03-08T21:41:20.436Z,10.70
2023-03-08T21:43:48.346Z,12.48
2023-03-08T21:46:16.690Z,15.55
2023-03-08T21:48:44.312Z,13.32
2023-03-08T21:51:12.193Z,15.52
2023-03-08T21:53:40.352Z,14.85
2023-03-08T21:56:12.910Z,13.55
2023-03-08T21:58:41.279Z,14.93
2023-03-08T22:01:21.740Z,19.10
2023-03-08T22:03:50.117Z,12.05
2023-03-08T22:06:17.891Z,17.23
2023-03-08T22:08:45.464Z,14.18
2023-03-08T22:11:13.465Z,17.45
2023-03-08T22:13:41.720Z,21.20
2023-03-08T22:16:09.577Z,18.33
2023-03-08T22:18:37.177Z,17.63
2023-03-08T22:21:04.789Z,19.58
2023-03-08T22:23:32.565Z,20.60
2023-03-08T22:26:00.001Z,20.13
2023-03-08T22:28:27.550Z,16.80
2023-03-08T22:30:55.016Z,13.95
2023-03-08T22:33:22.467Z,24.60
2023-03-08T22:38:19.456Z,15.85
2023-03-08T22:40:46.907Z,17.85
2023-03-08T22:43:14.965Z,18.33
2023-03-08T22:45:42.452Z,15.00
2023-03-08T22:48:09.977Z,21.48
2023-03-08T22:50:37.561Z,14.35
2023-03-08T22:53:05.209Z,22.98
2023-03-08T22:55:32.868Z,19.13
2023-03-08T22:58:00.522Z,19.55
2023-03-08T23:00:28.066Z,26.95
2023-03-08T23:02:57.629Z,19.73
2023-03-08T23:05:25.152Z,17.50
2023-03-08T23:07:54.009Z,19.50
2023-03-08T23:10:21.926Z,16.85
2023-03-08T23:12:49.819Z,19.92
2023-03-08T23:15:17.601Z,18.10
2023-03-08T23:17:45.417Z,16.95
2023-03-08T23:20:13.664Z,19.95
2023-03-08T23:22:43.936Z,23.23
2023-03-08T23:25:13.109Z,18.42
2023-03-08T23:27:41.069Z,22.02
2023-03-08T23:30:12.738Z,14.32
2023-03-08T23:32:43.162Z,20.50
2023-03-08T23:35:11.800Z,17.70
2023-03-08T23:37:40.593Z,18.98
2023-03-08T23:40:14.484Z,16.48
2023-03-08T23:42:42.607Z,23.73
2023-03-08T23:45:10.527Z,23.33
2023-03-08T23:47:38.451Z,14.88
2023-03-08T23:50:06.821Z,22.65
2023-03-08T23:52:34.702Z,19.10
2023-03-08T23:55:02.423Z,23.08
2023-03-08T23:57:30.375Z,17.50
2023-03-08T23:59:58.466Z,24.13
